Time;durP1;ratioP1;P1;durP2;ratioP2;P2;SDS_P1;SDS_P2;PMS_P1;PMS_P2;Temp;Humidity;BMP_temperature;BMP_pressure;BME280_temperature;BME280_humidity;BME280_pressure;Samples;Min_cycle;Max_cycle;Signal;HPM_P1;HPM_P2
2024/04/18 00:02:07;;;;;;;;;;;;;;;;;;5214960;27;20027;-80
2024/04/18 00:04:39;;;;;;;5.45;2.08;;;;;;;;;;5243759;27;19956;-82
2024/04/18 00:07:10;;;;;;;5.63;2.08;;;;;;;;;;5242869;27;20031;-81
2024/04/18 00:09:40;;;;;;;4.15;1.90;;;;;;;;;;5218308;27;20495;-82
2024/04/18 00:12:31;;;;;;;4.50;1.90;;;;;;;;;;5246544;27;20023;-81
2024/04/18 00:15:23;;;;;;;4.95;2.03;;;;;;;;;;5247155;27;20357;-82
2024/04/18 00:17:56;;;;;;;4.05;2.03;;;;;;;;;;5245456;27;20370;-80
2024/04/18 00:20:28;;;;;;;5.43;2.13;;;;;;;;;;5246176;27;20023;-83
2024/04/18 00:23:18;;;;;;;4.75;2.10;;;;;;;;;;5246945;27;20360;-82
2024/04/18 00:26:08;;;;;;;5.22;1.90;;;;;;;;;;5247088;27;20031;-80
2024/04/18 00:28:58;;;;;;;3.80;1.77;;;;;;;;;;5272323;27;20038;-81
2024/04/18 00:31:28;;;;;;;7.00;1.75;;;;;;;;;;5280188;27;20150;-82
2024/04/18 00:33:59;;;;;;;4.97;1.52;;;;;;;;;;5249255;27;20038;-81
2024/04/18 00:36:30;;;;;;;4.68;1.50;;;;;;;;;;5280377;27;20030;-82
2024/04/18 00:39:20;;;;;;;4.88;2.47;;;;;;;;;;5279703;27;20401;-81
2024/04/18 00:42:00;;;;;;;10.48;1.60;;;;;;;;;;5279709;27;20031;-81
2024/04/18 00:44:31;;;;;;;4.57;1.92;;;;;;;;;;5249833;27;20025;-82
2024/04/18 00:47:15;;;;;;;4.65;2.28;;;;;;;;;;5249361;27;20026;-81
2024/04/18 00:50:07;;;;;;;5.20;1.90;;;;;;;;;;5280134;27;20023;-82
2024/04/18 00:52:41;;;;;;;6.60;2.28;;;;;;;;;;5279665;27;20023;-82
2024/04/18 00:55:30;;;;;;;4.80;2.50;;;;;;;;;;5268624;27;20027;-81
2024/04/18 00:58:12;;;;;;;7.18;2.72;;;;;;;;;;5276419;27;20493;-82
2024/04/18 01:00:45;;;;;;;6.25;2.67;;;;;;;;;;5278985;27;20018;-80
2024/04/18 01:03:34;;;;;;;7.03;2.10;;;;;;;;;;5263751;27;20146;-82
2024/04/18 01:06:09;;;;;;;9.05;2.00;;;;;;;;;;5218171;27;20020;-81
2024/04/18 01:09:00;;;;;;;6.32;1.90;;;;;;;;;;5224984;27;20358;-81
2024/04/18 01:11:32;;;;;;;10.07;2.10;;;;;;;;;;5250021;27;20022;-81
2024/04/18 01:14:10;;;;;;;4.90;1.92;;;;;;;;;;5248599;27;20039;-82
2024/04/18 01:17:02;;;;;;;6.50;2.08;;;;;;;;;;5280115;27;20026;-81
2024/04/18 01:19:33;;;;;;;4.05;1.50;;;;;;;;;;5248126;27;20468;-81
2024/04/18 01:22:04;;;;;;;4.93;1.88;;;;;;;;;;5279912;27;20018;-80
2024/04/18 01:24:34;;;;;;;4.25;1.77;;;;;;;;;;5278793;27;20032;-81
2024/04/18 01:27:04;;;;;;;7.40;1.83;;;;;;;;;;5278201;27;20018;-82
2024/04/18 01:29:52;;;;;;;4.22;1.83;;;;;;;;;;5254749;27;20020;-81
2024/04/18 01:32:49;;;;;;;3.22;1.85;;;;;;;;;;5274615;27;20034;-81
2024/04/18 01:35:19;;;;;;;8.93;1.92;;;;;;;;;;5249670;27;20035;-82
2024/04/18 01:37:49;;;;;;;5.00;1.90;;;;;;;;;;5249433;27;20579;-81
2024/04/18 01:40:19;;;;;;;4.72;1.80;;;;;;;;;;5279020;27;20022;-80
2024/04/18 01:43:07;;;;;;;5.65;1.85;;;;;;;;;;5255094;27;20026;-81
2024/04/18 01:45:58;;;;;;;5.72;2.10;;;;;;;;;;5279180;27;20461;-81
2024/04/18 01:48:28;;;;;;;9.02;2.55;;;;;;;;;;5278745;27;20018;-80
2024/04/18 01:51:17;;;;;;;4.68;2.33;;;;;;;;;;5279551;27;20022;-82
2024/04/18 01:53:47;;;;;;;6.35;2.40;;;;;;;;;;5278747;27;20031;-80
2024/04/18 01:56:20;;;;;;;4.38;2.10;;;;;;;;;;5279731;27;20022;-81
2024/04/18 01:58:52;;;;;;;6.78;2.22;;;;;;;;;;5279621;27;20018;-80
2024/04/18 02:01:24;;;;;;;7.10;2.40;;;;;;;;;;5279546;27;20540;-80
2024/04/18 02:03:54;;;;;;;6.00;2.55;;;;;;;;;;5279234;27;20022;-82
2024/04/18 02:06:24;;;;;;;6.38;1.90;;;;;;;;;;5277412;27;20018;-81
2024/04/18 02:08:54;;;;;;;7.60;2.20;;;;;;;;;;5249332;27;20023;-81
2024/04/18 02:11:43;;;;;;;4.82;2.03;;;;;;;;;;5254435;27;20362;-81
2024/04/18 02:14:15;;;;;;;5.32;2.05;;;;;;;;;;5278555;27;20022;-82
2024/04/18 02:16:45;;;;;;;6.78;2.40;;;;;;;;;;5278275;27;20031;-82
2024/04/18 02:19:25;;;;;;;5.88;1.92;;;;;;;;;;5252299;27;20022;-82
2024/04/18 02:21:59;;;;;;;5.15;2.50;;;;;;;;;;5278179;27;20019;-81
2024/04/18 02:24:59;;;;;;;5.63;2.40;;;;;;;;;;5279244;27;20022;-82
2024/04/18 02:27:30;;;;;;;5.75;2.47;;;;;;;;;;5278521;27;20030;-81
2024/04/18 02:30:19;;;;;;;6.05;1.92;;;;;;;;;;5278894;27;20023;-81
2024/04/18 02:33:14;;;;;;;5.68;2.35;;;;;;;;;;5279073;27;20466;-81
2024/04/18 02:35:49;;;;;;;11.32;2.00;;;;;;;;;;5278854;27;20027;-81
2024/04/18 02:38:37;;;;;;;5.10;2.13;;;;;;;;;;5278663;27;20023;-81
2024/04/18 02:41:08;;;;;;;8.43;2.45;;;;;;;;;;5250437;27;20031;-81
2024/04/18 02:43:54;;;;;;;8.20;2.40;;;;;;;;;;5284881;27;20457;-82
2024/04/18 02:46:26;;;;;;;7.45;2.50;;;;;;;;;;5284135;27;20022;-82
2024/04/18 02:49:14;;;;;;;6.47;2.13;;;;;;;;;;5279120;27;20034;-82
2024/04/18 02:51:59;;;;;;;9.13;2.53;;;;;;;;;;5278814;27;20018;-82
2024/04/18 02:54:45;;;;;;;9.57;2.88;;;;;;;;;;5278615;27;20018;-82
2024/04/18 02:57:16;;;;;;;5.72;2.53;;;;;;;;;;5249023;27;20030;-81
2024/04/18 02:59:48;;;;;;;6.90;3.08;;;;;;;;;;5220340;27;20027;-82
2024/04/18 03:02:24;;;;;;;7.95;2.90;;;;;;;;;;5264180;27;20026;-80
2024/04/18 03:05:12;;;;;;;9.45;2.90;;;;;;;;;;5253858;27;20028;-80
2024/04/18 03:07:46;;;;;;;9.40;3.20;;;;;;;;;;5278647;27;20026;-80
2024/04/18 03:10:17;;;;;;;5.28;2.63;;;;;;;;;;5249437;27;20485;-80
2024/04/18 03:13:00;;;;;;;7.90;2.55;;;;;;;;;;5278241;27;20022;-81
2024/04/18 03:15:53;;;;;;;6.15;2.47;;;;;;;;;;5260800;27;20030;-81
2024/04/18 03:18:23;;;;;;;7.25;2.60;;;;;;;;;;5276760;27;20362;-81
2024/04/18 03:21:14;;;;;;;6.03;2.53;;;;;;;;;;5277922;27;20022;-80
2024/04/18 03:23:45;;;;;;;5.50;2.42;;;;;;;;;;5278003;27;20022;-80
2024/04/18 03:26:34;;;;;;;6.68;2.97;;;;;;;;;;5276630;27;20031;-82
2024/04/18 03:29:06;;;;;;;8.93;3.30;;;;;;;;;;5221308;27;20027;-81
2024/04/18 03:31:57;;;;;;;7.88;3.33;;;;;;;;;;5277811;27;20030;-80
2024/04/18 03:34:45;;;;;;;7.93;2.88;;;;;;;;;;5276805;27;20027;-81
2024/04/18 03:37:16;;;;;;;9.20;3.38;;;;;;;;;;5248657;27;20352;-81
2024/04/18 03:39:47;;;;;;;9.95;3.13;;;;;;;;;;5277542;27;20031;-80
2024/04/18 03:42:18;;;;;;;6.22;2.70;;;;;;;;;;5276804;27;20031;-81
2024/04/18 03:44:56;;;;;;;8.02;3.33;;;;;;;;;;5221864;27;20430;-80
2024/04/18 03:47:28;;;;;;;7.15;2.97;;;;;;;;;;5248285;27;20022;-82
2024/04/18 03:50:12;;;;;;;7.88;2.83;;;;;;;;;;5246648;27;20026;-80
2024/04/18 03:52:42;;;;;;;8.45;2.90;;;;;;;;;;5245139;27;20039;-81
2024/04/18 03:55:30;;;;;;;6.15;3.00;;;;;;;;;;5252771;27;20023;-80
2024/04/18 03:58:00;;;;;;;8.32;3.17;;;;;;;;;;5248022;27;20405;-82
2024/04/18 04:00:50;;;;;;;8.48;2.95;;;;;;;;;;5252842;27;20022;-79
2024/04/18 04:03:21;;;;;;;11.93;3.03;;;;;;;;;;5247172;27;20365;-81
2024/04/18 04:05:52;;;;;;;6.93;3.15;;;;;;;;;;5248371;27;20038;-79
2024/04/18 04:08:22;;;;;;;7.10;2.95;;;;;;;;;;5277316;27;20018;-80
2024/04/18 04:11:13;;;;;;;7.13;2.40;;;;;;;;;;5278075;27;20023;-81
2024/04/18 04:13:44;;;;;;;7.28;3.13;;;;;;;;;;5245583;27;20030;-81
2024/04/18 04:16:20;;;;;;;9.13;3.22;;;;;;;;;;5246588;27;20030;-80
2024/04/18 04:19:10;;;;;;;6.88;3.42;;;;;;;;;;5277000;27;20023;-79
2024/04/18 04:21:50;;;;;;;7.35;2.83;;;;;;;;;;5250794;27;20019;-80
2024/04/18 04:24:20;;;;;;;7.43;3.10;;;;;;;;;;5248303;27;20023;-80
2024/04/18 04:26:52;;;;;;;8.85;2.78;;;;;;;;;;5277501;27;20018;-79
2024/04/18 04:29:22;;;;;;;6.25;2.97;;;;;;;;;;5277447;27;20027;-82
2024/04/18 04:31:53;;;;;;;6.45;3.20;;;;;;;;;;5276866;27;20375;-82
2024/04/18 04:34:23;;;;;;;10.20;3.58;;;;;;;;;;5276867;27;20469;-81
2024/04/18 04:36:52;;;;;;;6.68;3.25;;;;;;;;;;5277061;27;20470;-80
2024/04/18 04:39:25;;;;;;;6.00;2.85;;;;;;;;;;5277065;27;20018;-81
2024/04/18 04:42:15;;;;;;;8.13;3.38;;;;;;;;;;5276667;27;20026;-81
2024/04/18 04:44:45;;;;;;;10.30;3.20;;;;;;;;;;5276929;27;20023;-80
2024/04/18 04:47:32;;;;;;;9.93;3.20;;;;;;;;;;5247138;27;20031;-82
2024/04/18 04:50:23;;;;;;;8.02;3.63;;;;;;;;;;5276724;27;20371;-82
2024/04/18 04:53:12;;;;;;;5.15;2.78;;;;;;;;;;5277202;27;20018;-80
2024/04/18 04:56:01;;;;;;;9.88;3.72;;;;;;;;;;5250025;27;20027;-80
2024/04/18 04:58:31;;;;;;;6.75;2.72;;;;;;;;;;5249594;27;20026;-80
2024/04/18 05:01:01;;;;;;;7.90;3.15;;;;;;;;;;5280043;27;20027;-80
2024/04/18 05:03:38;;;;;;;8.85;3.22;;;;;;;;;;5250340;27;20019;-81
2024/04/18 05:06:27;;;;;;;7.43;2.92;;;;;;;;;;5249896;27;20022;-79
2024/04/18 05:09:19;;;;;;;6.47;2.97;;;;;;;;;;5249396;27;20038;-80
2024/04/18 05:11:49;;;;;;;9.25;3.10;;;;;;;;;;5280106;27;20030;-81
2024/04/18 05:14:34;;;;;;;;;;;;;;;;;;5255026;27;20090;-80
2024/04/18 05:17:44;;;;;;;7.65;3.33;;;;;;;;;;5177653;27;19957;-80
2024/04/18 05:20:15;;;;;;;11.70;3.30;;;;;;;;;;5177361;27;20377;-81
2024/04/18 05:22:45;;;;;;;12.43;3.75;;;;;;;;;;5201472;27;20026;-81
2024/04/18 05:25:15;;;;;;;8.27;3.15;;;;;;;;;;5250062;27;20027;-79
2024/04/18 05:27:55;;;;;;;8.40;3.58;;;;;;;;;;5250506;27;20022;-81
2024/04/18 05:33:25;;;;;;;7.93;2.78;;;;;;;;;;5280084;27;20022;-79
2024/04/18 05:35:57;;;;;;;8.35;2.42;;;;;;;;;;5250765;27;20018;-79
2024/04/18 05:38:27;;;;;;;6.78;2.50;;;;;;;;;;5250351;27;20022;-80
2024/04/18 05:40:58;;;;;;;6.25;2.53;;;;;;;;;;5222798;27;20030;-81
2024/04/18 05:43:46;;;;;;;6.57;2.80;;;;;;;;;;5279599;27;20027;-80
2024/04/18 05:46:16;;;;;;;7.60;2.63;;;;;;;;;;5279423;27;20027;-80
2024/04/18 05:48:47;;;;;;;6.18;2.65;;;;;;;;;;5278662;27;20026;-80
2024/04/18 05:51:18;;;;;;;6.15;2.58;;;;;;;;;;5278552;27;20026;-80
2024/04/18 05:54:14;;;;;;;5.55;2.90;;;;;;;;;;5256468;27;20026;-80
2024/04/18 05:57:06;;;;;;;5.88;2.55;;;;;;;;;;5279508;27;20022;-81
2024/04/18 05:59:51;;;;;;;6.47;2.47;;;;;;;;;;5279464;27;20027;-80
2024/04/18 06:02:22;;;;;;;5.35;2.33;;;;;;;;;;5280196;27;20360;-79
2024/04/18 06:04:52;;;;;;;5.38;2.20;;;;;;;;;;5278648;27;20026;-80
2024/04/18 06:07:40;;;;;;;6.05;2.35;;;;;;;;;;5279477;27;20023;-80
2024/04/18 06:10:14;;;;;;;7.32;2.40;;;;;;;;;;5251023;27;20026;-80
2024/04/18 06:12:44;;;;;;;5.18;2.40;;;;;;;;;;5248843;27;20482;-80
2024/04/18 06:15:16;;;;;;;5.28;2.50;;;;;;;;;;5277590;27;20037;-81
2024/04/18 06:17:46;;;;;;;6.10;2.55;;;;;;;;;;5279171;27;20452;-79
2024/04/18 06:20:16;;;;;;;6.63;2.58;;;;;;;;;;5248518;27;20449;-81
2024/04/18 06:22:46;;;;;;;8.60;2.70;;;;;;;;;;5250286;27;20027;-81
2024/04/18 06:25:26;;;;;;;5.47;2.75;;;;;;;;;;5278771;27;20026;-80
2024/04/18 06:27:58;;;;;;;5.85;2.33;;;;;;;;;;5279115;27;20027;-79
2024/04/18 06:30:28;;;;;;;7.22;2.33;;;;;;;;;;5277538;27;20034;-81
2024/04/18 06:32:59;;;;;;;6.20;2.72;;;;;;;;;;5250037;27;20030;-79
2024/04/18 06:35:29;;;;;;;6.72;2.60;;;;;;;;;;5248174;27;20026;-79
2024/04/18 06:37:59;;;;;;;10.70;3.13;;;;;;;;;;5277690;27;20370;-80
2024/04/18 06:40:30;;;;;;;10.40;2.65;;;;;;;;;;5277672;27;20022;-80
2024/04/18 06:43:02;;;;;;;7.30;3.20;;;;;;;;;;5248955;27;20027;-80
2024/04/18 06:45:33;;;;;;;8.60;3.28;;;;;;;;;;5249843;27;20030;-80
2024/04/18 06:48:04;;;;;;;6.18;2.83;;;;;;;;;;5278853;27;20019;-80
2024/04/18 06:50:36;;;;;;;5.68;2.92;;;;;;;;;;5277748;27;20027;-79
2024/04/18 06:53:08;;;;;;;5.65;2.15;;;;;;;;;;5249013;27;20380;-80
2024/04/18 06:55:39;;;;;;;4.57;2.28;;;;;;;;;;5247909;27;20026;-80
2024/04/18 06:58:10;;;;;;;6.18;2.33;;;;;;;;;;5247257;27;20022;-80
2024/04/18 07:00:41;;;;;;;7.78;2.20;;;;;;;;;;5249928;27;20035;-79
2024/04/18 07:03:14;;;;;;;14.27;2.35;;;;;;;;;;5222729;27;20026;-80
2024/04/18 07:05:50;;;;;;;5.03;2.08;;;;;;;;;;5248685;27;20473;-80
2024/04/18 07:08:26;;;;;;;7.75;2.40;;;;;;;;;;5249004;27;20338;-79
2024/04/18 07:10:58;;;;;;;10.00;2.60;;;;;;;;;;5280530;27;20023;-80
2024/04/18 07:13:34;;;;;;;11.27;2.75;;;;;;;;;;5256948;27;20138;-79
2024/04/18 07:16:23;;;;;;;8.38;2.58;;;;;;;;;;5281637;27;20022;-80
2024/04/18 07:18:53;;;;;;;5.80;2.40;;;;;;;;;;5221663;27;20026;-80
2024/04/18 07:21:23;;;;;;;8.27;2.47;;;;;;;;;;5222665;27;20026;-81
2024/04/18 07:24:15;;;;;;;8.38;2.55;;;;;;;;;;5277578;27;20031;-79
2024/04/18 07:26:47;;;;;;;7.43;2.90;;;;;;;;;;5276883;27;20027;-80
2024/04/18 07:29:17;;;;;;;12.50;3.38;;;;;;;;;;5247805;27;20030;-80
2024/04/18 07:31:47;;;;;;;6.55;2.50;;;;;;;;;;5278065;27;20019;-79
2024/04/18 07:34:17;;;;;;;6.45;2.80;;;;;;;;;;5249039;27;20018;-80
2024/04/18 07:36:48;;;;;;;9.25;2.75;;;;;;;;;;5278240;27;20027;-81
2024/04/18 07:39:19;;;;;;;6.65;2.95;;;;;;;;;;5264654;27;20026;-81
2024/04/18 07:41:49;;;;;;;5.57;2.70;;;;;;;;;;5276229;27;20026;-79
2024/04/18 07:44:19;;;;;;;7.80;3.35;;;;;;;;;;5277259;27;20026;-81
2024/04/18 07:46:52;;;;;;;8.63;3.08;;;;;;;;;;5278383;27;20031;-79
2024/04/18 07:49:24;;;;;;;10.77;3.45;;;;;;;;;;5276760;27;20031;-80
2024/04/18 07:51:55;;;;;;;7.97;3.38;;;;;;;;;;5247734;27;20030;-81
2024/04/18 07:54:37;;;;;;;7.18;3.10;;;;;;;;;;5277789;27;20022;-81
2024/04/18 07:57:07;;;;;;;8.43;2.90;;;;;;;;;;5248675;27;20031;-81
2024/04/18 07:59:41;;;;;;;8.25;3.33;;;;;;;;;;5277943;27;20023;-81
2024/04/18 08:02:15;;;;;;;8.07;3.20;;;;;;;;;;5277745;27;20031;-81
2024/04/18 08:04:48;;;;;;;7.68;3.95;;;;;;;;;;5277486;27;20019;-81
2024/04/18 08:07:27;;;;;;;8.27;3.17;;;;;;;;;;5251472;27;20027;-80
2024/04/18 08:10:04;;;;;;;7.00;3.08;;;;;;;;;;5275502;27;20027;-80
2024/04/18 08:12:42;;;;;;;7.30;2.95;;;;;;;;;;5277491;27;20023;-81
2024/04/18 08:15:18;;;;;;;8.43;2.85;;;;;;;;;;5276486;27;20374;-80
2024/04/18 08:17:56;;;;;;;13.77;3.50;;;;;;;;;;5277397;27;20490;-80
2024/04/18 08:20:26;;;;;;;10.23;3.65;;;;;;;;;;5243683;27;20023;-81
2024/04/18 08:22:58;;;;;;;12.57;3.35;;;;;;;;;;5243601;27;20027;-81
2024/04/18 08:25:29;;;;;;;20.92;3.33;;;;;;;;;;5243513;27;20023;-81
2024/04/18 08:27:59;;;;;;;14.65;3.17;;;;;;;;;;5243876;27;20032;-79
2024/04/18 08:30:29;;;;;;;19.30;3.78;;;;;;;;;;5245730;27;20454;-80
2024/04/18 08:33:00;;;;;;;11.88;3.17;;;;;;;;;;5245325;27;20019;-81
2024/04/18 08:35:30;;;;;;;11.18;3.60;;;;;;;;;;5245813;27;20023;-80
2024/04/18 08:38:00;;;;;;;7.30;3.40;;;;;;;;;;5216742;27;20027;-82
2024/04/18 08:40:32;;;;;;;8.35;3.10;;;;;;;;;;5247358;27;20031;-82
2024/04/18 08:43:03;;;;;;;13.35;4.10;;;;;;;;;;5246840;27;20470;-81
2024/04/18 08:45:34;;;;;;;9.00;3.20;;;;;;;;;;5217386;27;20019;-81
2024/04/18 08:48:06;;;;;;;8.85;3.78;;;;;;;;;;5217158;27;20374;-82
2024/04/18 08:50:41;;;;;;;11.82;3.65;;;;;;;;;;5243924;27;20023;-80
2024/04/18 08:53:12;;;;;;;16.45;3.40;;;;;;;;;;5217044;27;20474;-81
2024/04/18 08:55:50;;;;;;;16.25;3.63;;;;;;;;;;5246902;27;20334;-80
2024/04/18 08:58:22;;;;;;;8.40;3.25;;;;;;;;;;5217882;27;20027;-81
2024/04/18 09:00:54;;;;;;;6.35;2.90;;;;;;;;;;5246994;27;20028;-79
2024/04/18 09:03:25;;;;;;;5.90;2.90;;;;;;;;;;5245593;27;20023;-80
2024/04/18 09:05:55;;;;;;;6.70;3.17;;;;;;;;;;5246184;27;20032;-80
2024/04/18 09:08:25;;;;;;;8.00;3.10;;;;;;;;;;5245911;27;20019;-80
2024/04/18 09:10:59;;;;;;;7.70;3.22;;;;;;;;;;5246379;27;20019;-80
2024/04/18 09:13:30;;;;;;;;;;;;;;;;;;5246707;27;20022;-80
2024/04/18 09:16:01;;;;;;;9.90;4.00;;;;;;;;;;5245794;27;19952;-80
2024/04/18 09:18:34;;;;;;;8.45;3.03;;;;;;;;;;5253411;27;20458;-81
2024/04/18 09:21:09;;;;;;;8.30;3.35;;;;;;;;;;5279108;27;20032;-80
2024/04/18 09:23:42;;;;;;;7.95;3.60;;;;;;;;;;5280228;27;20361;-81
2024/04/18 09:26:14;;;;;;;8.02;3.17;;;;;;;;;;5261013;27;20171;-81
2024/04/18 09:28:45;;;;;;;8.32;3.15;;;;;;;;;;5189009;27;20035;-80
2024/04/18 09:31:18;;;;;;;7.35;3.30;;;;;;;;;;5215985;27;20034;-80
2024/04/18 09:34:03;;;;;;;8.75;3.55;;;;;;;;;;5245198;27;20031;-81
2024/04/18 09:36:33;;;;;;;10.23;3.05;;;;;;;;;;5245017;27;20039;-80
2024/04/18 09:39:05;;;;;;;10.73;3.95;;;;;;;;;;5245723;27;20469;-80
2024/04/18 09:41:39;;;;;;;7.60;3.28;;;;;;;;;;5243805;27;20142;-81
2024/04/18 09:44:21;;;;;;;7.00;3.13;;;;;;;;;;5245236;27;20034;-79
2024/04/18 09:46:58;;;;;;;7.47;3.22;;;;;;;;;;5245685;27;20031;-79
2024/04/18 09:49:28;;;;;;;7.50;3.45;;;;;;;;;;5246009;27;20022;-81
2024/04/18 09:52:00;;;;;;;7.80;3.17;;;;;;;;;;5244645;27;20047;-80
2024/04/18 09:54:30;;;;;;;7.15;3.28;;;;;;;;;;5245749;27;20027;-80
2024/04/18 09:57:04;;;;;;;7.65;3.08;;;;;;;;;;5245500;27;20492;-81
2024/04/18 09:59:36;;;;;;;9.25;3.28;;;;;;;;;;5245397;27;20031;-79
2024/04/18 10:02:14;;;;;;;6.97;3.25;;;;;;;;;;5225065;27;20038;-80
2024/04/18 10:04:45;;;;;;;8.57;3.20;;;;;;;;;;5279337;27;20022;-81
2024/04/18 10:07:16;;;;;;;16.45;7.30;;;;;;;;;;5263812;27;20035;-79
2024/04/18 10:09:50;;;;;;;31.23;13.90;;;;;;;;;;5190311;27;20039;-79
2024/04/18 10:12:31;;;;;;;14.93;7.90;;;;;;;;;;5230930;27;20030;-79
2024/04/18 10:15:02;;;;;;;8.57;4.10;;;;;;;;;;5278744;27;20025;-80
2024/04/18 10:17:33;;;;;;;8.52;3.45;;;;;;;;;;5248407;27;20027;-82
2024/04/18 10:20:07;;;;;;;7.97;3.50;;;;;;;;;;5278869;27;20027;-80
2024/04/18 10:22:37;;;;;;;8.90;3.28;;;;;;;;;;5249372;27;20023;-78
2024/04/18 10:25:23;;;;;;;9.38;3.58;;;;;;;;;;5279033;27;20023;-78
2024/04/18 10:27:53;;;;;;;5.82;3.10;;;;;;;;;;5248878;27;20481;-77
2024/04/18 10:30:25;;;;;;;7.13;2.92;;;;;;;;;;5249773;27;20356;-78
2024/04/18 10:32:56;;;;;;;8.30;3.13;;;;;;;;;;5248909;27;20022;-80
2024/04/18 10:35:27;;;;;;;7.60;3.25;;;;;;;;;;5249245;27;20366;-79
2024/04/18 10:37:59;;;;;;;7.28;3.28;;;;;;;;;;5278779;27;20034;-78
2024/04/18 10:40:31;;;;;;;9.45;3.70;;;;;;;;;;5246561;27;20505;-79
2024/04/18 10:43:12;;;;;;;8.93;3.00;;;;;;;;;;5275919;27;20031;-78
2024/04/18 10:45:48;;;;;;;7.15;2.97;;;;;;;;;;5222235;27;20361;-79
2024/04/18 10:48:19;;;;;;;7.72;2.90;;;;;;;;;;5278221;27;20498;-79
2024/04/18 10:50:51;;;;;;;8.73;2.85;;;;;;;;;;5277691;27;20047;-78
2024/04/18 10:53:22;;;;;;;20.38;3.50;;;;;;;;;;5277345;27;20038;-80
2024/04/18 10:55:52;;;;;;;15.63;3.25;;;;;;;;;;5276669;27;20036;-78
2024/04/18 10:58:22;;;;;;;6.90;3.35;;;;;;;;;;5246508;27;20173;-78
2024/04/18 11:01:00;;;;;;;8.18;2.92;;;;;;;;;;5277510;27;20494;-79
2024/04/18 11:03:31;;;;;;;11.50;2.90;;;;;;;;;;5275539;27;20481;-78
2024/04/18 11:06:02;;;;;;;17.67;3.60;;;;;;;;;;5260127;27;20174;-80
2024/04/18 11:08:34;;;;;;;19.25;4.32;;;;;;;;;;5225801;27;20391;-78
2024/04/18 11:11:05;;;;;;;12.25;4.53;;;;;;;;;;5246973;27;20011;-79
2024/04/18 11:13:36;;;;;;;18.08;3.65;;;;;;;;;;5271711;27;20481;-80
2024/04/18 11:16:07;;;;;;;10.68;2.72;;;;;;;;;;5276049;27;20022;-78
2024/04/18 11:18:37;;;;;;;22.48;3.70;;;;;;;;;;5279097;27;20046;-79
2024/04/18 11:21:08;;;;;;;15.77;3.17;;;;;;;;;;5280815;27;20035;-79
2024/04/18 11:23:38;;;;;;;15.85;4.07;;;;;;;;;;5276584;27;20042;-79
2024/04/18 11:26:25;;;;;;;13.98;3.67;;;;;;;;;;5277603;27;20034;-77
2024/04/18 11:28:58;;;;;;;12.70;2.97;;;;;;;;;;5276638;27;20034;-78
2024/04/18 11:31:28;;;;;;;10.80;2.85;;;;;;;;;;5274415;27;20724;-78
2024/04/18 11:33:58;;;;;;;16.35;3.05;;;;;;;;;;5236270;27;20042;-78
2024/04/18 11:36:29;;;;;;;15.65;2.78;;;;;;;;;;5219033;27;20043;-78
2024/04/18 11:39:01;;;;;;;16.77;3.05;;;;;;;;;;5264021;27;20042;-78
2024/04/18 11:41:32;;;;;;;11.27;3.45;;;;;;;;;;5276809;27;20030;-77
2024/04/18 11:44:02;;;;;;;7.20;2.80;;;;;;;;;;5277200;27;20030;-78
2024/04/18 11:46:33;;;;;;;6.32;3.38;;;;;;;;;;5276074;27;20132;-79
2024/04/18 11:49:04;;;;;;;7.70;3.33;;;;;;;;;;5275772;27;20033;-78
2024/04/18 11:51:34;;;;;;;7.25;3.00;;;;;;;;;;5271745;27;20046;-77
2024/04/18 11:54:05;;;;;;;8.90;3.13;;;;;;;;;;5226845;27;20494;-78
2024/04/18 11:56:35;;;;;;;5.15;2.55;;;;;;;;;;5243774;27;20373;-78
2024/04/18 11:59:23;;;;;;;7.43;3.17;;;;;;;;;;5246430;27;20038;-80
2024/04/18 12:01:54;;;;;;;6.70;3.22;;;;;;;;;;5269604;27;20042;-78
2024/04/18 12:04:25;;;;;;;7.38;3.58;;;;;;;;;;5266280;27;20102;-80
2024/04/18 12:06:55;;;;;;;6.10;2.85;;;;;;;;;;5273193;27;20473;-80
2024/04/18 12:09:30;;;;;;;5.22;2.22;;;;;;;;;;5233053;27;20046;-79
2024/04/18 12:12:01;;;;;;;5.93;2.83;;;;;;;;;;5246768;27;20043;-78
2024/04/18 12:14:47;;;;;;;5.68;2.50;;;;;;;;;;5259978;27;20030;-80
2024/04/18 12:17:28;;;;;;;4.72;2.78;;;;;;;;;;5279695;27;20038;-78
2024/04/18 12:20:19;;;;;;;8.95;3.13;;;;;;;;;;5279005;27;20477;-79
2024/04/18 12:22:49;;;;;;;6.90;2.97;;;;;;;;;;5276864;27;20036;-79
2024/04/18 12:25:19;;;;;;;7.35;3.63;;;;;;;;;;5279820;27;20101;-79
2024/04/18 12:27:49;;;;;;;7.15;3.58;;;;;;;;;;5222840;27;20038;-80
2024/04/18 12:30:32;;;;;;;5.70;3.15;;;;;;;;;;5253950;27;20026;-79
2024/04/18 12:33:18;;;;;;;5.20;2.80;;;;;;;;;;5280035;27;20027;-81
2024/04/18 12:35:49;;;;;;;8.52;3.63;;;;;;;;;;5279117;27;20042;-79
2024/04/18 12:38:19;;;;;;;9.45;3.08;;;;;;;;;;5236812;27;20042;-83
2024/04/18 12:40:58;;;;;;;7.65;3.20;;;;;;;;;;5252458;27;20031;-80
2024/04/18 12:43:33;;;;;;;7.53;3.72;;;;;;;;;;5277483;27;20046;-81
2024/04/18 12:46:24;;;;;;;10.02;3.50;;;;;;;;;;5279780;27;20022;-80
2024/04/18 12:48:56;;;;;;;4.75;2.17;;;;;;;;;;5277884;27;20032;-81
2024/04/18 12:51:27;;;;;;;5.82;1.77;;;;;;;;;;5278655;27;20488;-80
2024/04/18 12:53:57;;;;;;;10.40;3.00;;;;;;;;;;5278171;27;20485;-81
2024/04/18 12:56:54;;;;;;;17.05;2.65;;;;;;;;;;5271654;27;20473;-82
2024/04/18 12:59:24;;;;;;;10.38;2.50;;;;;;;;;;5249100;27;20034;-84
2024/04/18 13:01:54;;;;;;;54.95;6.20;;;;;;;;;;5279902;27;20022;-81
2024/04/18 13:04:25;;;;;;;9.10;2.35;;;;;;;;;;5278949;27;20030;-81
2024/04/18 13:06:55;;;;;;;10.77;2.58;;;;;;;;;;5278848;27;20030;-81
2024/04/18 13:09:31;;;;;;;9.00;2.47;;;;;;;;;;5277598;27;20030;-81
2024/04/18 13:12:03;;;;;;;7.78;2.50;;;;;;;;;;5249189;27;20446;-80
2024/04/18 13:14:52;;;;;;;25.60;3.55;;;;;;;;;;5277604;27;20031;-81
2024/04/18 13:17:22;;;;;;;22.83;2.92;;;;;;;;;;5276407;27;20030;-81
2024/04/18 13:19:53;;;;;;;7.93;1.85;;;;;;;;;;5277711;27;20026;-81
2024/04/18 13:22:23;;;;;;;7.47;2.08;;;;;;;;;;5277023;27;20030;-80
2024/04/18 13:24:54;;;;;;;5.00;1.50;;;;;;;;;;5248834;27;20026;-81
2024/04/18 13:27:27;;;;;;;2.20;0.90;;;;;;;;;;5244569;27;20034;-81
2024/04/18 13:29:58;;;;;;;4.43;1.52;;;;;;;;;;5232420;27;20042;-81
2024/04/18 13:32:41;;;;;;;39.70;3.80;;;;;;;;;;5250502;27;20030;-80
2024/04/18 13:35:12;;;;;;;26.70;5.05;;;;;;;;;;5249944;27;20034;-81
2024/04/18 13:37:42;;;;;;;2.72;0.93;;;;;;;;;;5247864;27;20034;-81
2024/04/18 13:40:18;;;;;;;7.00;1.17;;;;;;;;;;5278497;27;20037;-81
2024/04/18 13:42:58;;;;;;;2.92;1.00;;;;;;;;;;5251825;27;20034;-81
2024/04/18 13:45:31;;;;;;;5.25;1.15;;;;;;;;;;5248256;27;20046;-82
2024/04/18 13:48:05;;;;;;;2.90;1.13;;;;;;;;;;5263504;27;20039;-82
2024/04/18 13:50:47;;;;;;;10.75;4.78;;;;;;;;;;5251080;27;20038;-81
2024/04/18 13:53:18;;;;;;;5.88;3.05;;;;;;;;;;5248414;27;20051;-83
2024/04/18 13:55:48;;;;;;;4.57;2.10;;;;;;;;;;5239659;27;20054;-82
2024/04/18 13:58:21;;;;;;;5.18;1.60;;;;;;;;;;5240450;27;20074;-83
2024/04/18 14:01:00;;;;;;;4.13;1.60;;;;;;;;;;5247856;27;20047;-81
2024/04/18 14:03:32;;;;;;;2.70;1.30;;;;;;;;;;5260732;27;20038;-82
2024/04/18 14:06:08;;;;;;;30.80;3.53;;;;;;;;;;5276719;27;20034;-83
2024/04/18 14:08:41;;;;;;;2.15;1.20;;;;;;;;;;5275803;27;20034;-81
2024/04/18 14:11:30;;;;;;;16.08;1.75;;;;;;;;;;5270980;27;20042;-82
2024/04/18 14:14:20;;;;;;;2.40;0.77;;;;;;;;;;5274295;27;20109;-81
2024/04/18 14:20:05;;;;;;;2.20;0.70;;;;;;;;;;5276222;27;20029;-83
2024/04/18 14:22:49;;;;;;;2.72;0.40;;;;;;;;;;5262387;27;20051;-82
2024/04/18 14:25:20;;;;;;;4.47;0.60;;;;;;;;;;5276556;27;20035;-83
2024/04/18 14:28:10;;;;;;;3.85;0.80;;;;;;;;;;5265159;27;20042;-84
2024/04/18 14:31:27;;;;;;;5.15;1.25;;;;;;;;;;5218156;27;20373;-82
2024/04/18 14:34:18;;;;;;;1.75;0.80;;;;;;;;;;5227142;27;20109;-82
2024/04/18 14:36:51;;;;;;;1.20;0.50;;;;;;;;;;5241933;27;20009;-83
2024/04/18 14:39:21;;;;;;;6.40;0.60;;;;;;;;;;5276963;27;20393;-83
2024/04/18 14:42:05;;;;;;;1.60;0.70;;;;;;;;;;5244453;27;20030;-81
2024/04/18 14:44:36;;;;;;;3.35;0.90;;;;;;;;;;5273656;27;20030;-82
2024/04/18 14:47:18;;;;;;;2.47;0.60;;;;;;;;;;5250280;27;20039;-84
2024/04/18 14:49:59;;;;;;;2.00;0.60;;;;;;;;;;5276757;27;20042;-83
2024/04/18 14:52:36;;;;;;;2.00;0.60;;;;;;;;;;5277718;27;20486;-82
2024/04/18 14:55:28;;;;;;;1.58;0.85;;;;;;;;;;5277381;27;20362;-81
2024/04/18 14:58:02;;;;;;;0.90;0.60;;;;;;;;;;5246772;27;20029;-82
2024/04/18 15:00:53;;;;;;;2.88;0.73;;;;;;;;;;5275648;27;20035;-82
2024/04/18 15:03:23;;;;;;;2.17;0.70;;;;;;;;;;5243778;27;20047;-81
2024/04/18 15:06:15;;;;;;;1.90;0.65;;;;;;;;;;5219805;27;20035;-81
2024/04/18 15:09:05;;;;;;;9.60;0.80;;;;;;;;;;5244496;27;20027;-80
2024/04/18 15:11:55;;;;;;;6.15;0.80;;;;;;;;;;5244551;27;20032;-82
2024/04/18 15:14:37;;;;;;;1.27;0.63;;;;;;;;;;5244196;27;20470;-83
2024/04/18 15:17:08;;;;;;;2.38;0.50;;;;;;;;;;5244373;27;20027;-83
2024/04/18 15:19:39;;;;;;;2.30;0.50;;;;;;;;;;5244139;27;20035;-80
2024/04/18 15:22:28;;;;;;;2.65;0.50;;;;;;;;;;5244327;27;20027;-82
2024/04/18 15:25:18;;;;;;;2.25;0.70;;;;;;;;;;5244095;27;20043;-81
2024/04/18 15:27:48;;;;;;;4.68;1.00;;;;;;;;;;5243607;27;20036;-80
2024/04/18 15:30:19;;;;;;;1.00;0.50;;;;;;;;;;5243196;27;20031;-81
2024/04/18 15:32:49;;;;;;;2.67;0.63;;;;;;;;;;5212924;27;20047;-81
2024/04/18 15:35:20;;;;;;;1.35;0.52;;;;;;;;;;5240067;27;20034;-80
2024/04/18 15:38:09;;;;;;;3.25;0.50;;;;;;;;;;5218298;27;20027;-79
2024/04/18 15:40:59;;;;;;;3.08;0.60;;;;;;;;;;5237389;27;20130;-83